createdAt,value
2022-11-16T00:01:57.300Z,4.15
2022-11-16T00:04:27.255Z,3.97
2022-11-16T00:06:54.953Z,4.57
2022-11-16T00:09:27.221Z,4.30
2022-11-16T00:11:57.130Z,4.40
2022-11-16T00:14:26.997Z,4.30
2022-11-16T00:16:54.818Z,4.03
2022-11-16T00:19:22.980Z,4.68
2022-11-16T00:21:52.551Z,4.47
2022-11-16T00:24:24.368Z,4.60
2022-11-16T00:26:54.076Z,4.80
2022-11-16T00:29:24.781Z,6.00
2022-11-16T00:31:53.711Z,5.13
2022-11-16T00:34:22.607Z,6.20
2022-11-16T00:36:52.019Z,5.82
2022-11-16T00:39:21.001Z,4.78
2022-11-16T00:41:49.523Z,4.73
2022-11-16T00:44:18.114Z,5.85
2022-11-16T00:46:45.804Z,6.15
2022-11-16T00:49:14.616Z,6.20
2022-11-16T00:51:43.332Z,6.45
2022-11-16T00:54:12.576Z,6.20
2022-11-16T00:56:40.620Z,6.82
2022-11-16T00:59:08.434Z,7.13
2022-11-16T01:01:36.625Z,6.25
2022-11-16T01:04:04.943Z,6.07
2022-11-16T01:06:38.668Z,6.37
2022-11-16T01:09:06.515Z,5.45
2022-11-16T01:11:52.851Z,4.55
2022-11-16T01:14:20.761Z,4.80
2022-11-16T01:16:50.575Z,4.85
2022-11-16T01:19:18.640Z,5.47
2022-11-16T01:21:46.343Z,5.90
2022-11-16T01:24:14.121Z,5.82
2022-11-16T01:26:43.128Z,5.47
2022-11-16T01:29:11.120Z,6.82
2022-11-16T01:31:38.824Z,6.80
2022-11-16T01:34:06.978Z,5.82
2022-11-16T01:36:36.627Z,6.38
2022-11-16T01:39:05.994Z,6.07
2022-11-16T01:41:33.930Z,6.40
2022-11-16T01:44:05.179Z,7.50
2022-11-16T01:46:33.554Z,6.15
2022-11-16T01:49:06.065Z,6.03
2022-11-16T01:51:35.042Z,5.90
2022-11-16T01:54:06.024Z,6.30
2022-11-16T01:56:34.401Z,6.20
2022-11-16T01:59:04.103Z,5.80
2022-11-16T02:01:31.778Z,4.95
2022-11-16T02:03:59.613Z,5.60
2022-11-16T02:07:06.954Z,6.00
2022-11-16T02:10:01.321Z,4.73
2022-11-16T02:13:01.775Z,6.10
2022-11-16T02:15:39.501Z,5.90
2022-11-16T02:18:20.633Z,5.65
2022-11-16T02:21:23.091Z,5.93
2022-11-16T02:24:21.251Z,6.10
2022-11-16T02:27:12.089Z,5.80
2022-11-16T02:29:44.282Z,6.18
2022-11-16T02:32:16.142Z,6.28
2022-11-16T02:34:48.366Z,5.97
2022-11-16T02:37:22.013Z,5.70
2022-11-16T02:39:53.532Z,6.82
2022-11-16T02:42:25.182Z,6.40
2022-11-16T02:44:56.770Z,6.20
2022-11-16T02:47:27.514Z,6.22
2022-11-16T02:49:59.322Z,6.00
2022-11-16T02:52:29.365Z,6.20
2022-11-16T02:54:57.514Z,5.78
2022-11-16T02:57:41.972Z,5.68
2022-11-16T03:00:17.218Z,6.18
2022-11-16T03:02:50.767Z,6.60
2022-11-16T03:05:21.626Z,7.95
2022-11-16T03:07:55.761Z,6.80
2022-11-16T03:10:38.282Z,6.68
2022-11-16T03:13:07.540Z,6.72
2022-11-16T03:15:38.940Z,6.40
2022-11-16T03:18:08.229Z,7.00
2022-11-16T03:20:40.815Z,7.32
2022-11-16T03:23:11.292Z,7.18
2022-11-16T03:25:46.651Z,6.43
2022-11-16T03:28:22.682Z,6.30
2022-11-16T03:30:55.991Z,5.88
2022-11-16T03:33:29.154Z,6.35
2022-11-16T03:36:00.759Z,6.03
2022-11-16T03:38:30.331Z,6.43
2022-11-16T03:41:02.610Z,6.03
2022-11-16T03:43:32.846Z,6.30
2022-11-16T03:46:02.370Z,6.10
2022-11-16T03:48:38.605Z,6.05
2022-11-16T03:51:07.318Z,6.90
2022-11-16T03:53:36.819Z,6.17
2022-11-16T03:56:04.893Z,6.63
2022-11-16T03:58:33.196Z,6.55
2022-11-16T04:01:03.462Z,6.60
2022-11-16T04:07:30.105Z,4.87
2022-11-16T04:10:22.004Z,6.75
2022-11-16T04:13:07.538Z,5.72
2022-11-16T04:15:55.524Z,5.20
2022-11-16T04:18:42.828Z,5.13
2022-11-16T04:21:36.991Z,5.23
2022-11-16T04:24:15.764Z,5.60
2022-11-16T04:27:03.960Z,5.53
2022-11-16T04:29:46.450Z,5.70
2022-11-16T04:32:35.040Z,5.35
2022-11-16T04:35:27.750Z,4.90
2022-11-16T04:37:57.710Z,4.88
2022-11-16T04:40:29.609Z,5.70
2022-11-16T04:42:59.018Z,5.30
2022-11-16T04:45:45.985Z,5.57
2022-11-16T04:48:15.634Z,6.60
2022-11-16T04:50:45.611Z,6.38
2022-11-16T04:53:13.381Z,6.18
2022-11-16T04:55:41.217Z,5.55
2022-11-16T04:58:09.196Z,5.60
2022-11-16T05:00:36.846Z,5.07
2022-11-16T05:03:05.307Z,4.80
2022-11-16T05:05:33.099Z,5.32
2022-11-16T05:08:02.112Z,5.13
2022-11-16T05:10:29.944Z,5.55
2022-11-16T05:12:58.741Z,5.80
2022-11-16T05:15:26.375Z,5.18
2022-11-16T05:17:55.741Z,5.32
2022-11-16T05:20:41.027Z,5.93
2022-11-16T05:23:30.768Z,5.63
2022-11-16T05:25:58.672Z,6.07
2022-11-16T05:28:26.280Z,5.70
2022-11-16T05:30:54.337Z,7.40
2022-11-16T05:33:22.422Z,6.20
2022-11-16T05:35:50.788Z,5.10
2022-11-16T05:38:20.021Z,5.53
2022-11-16T05:40:47.966Z,5.32
2022-11-16T05:43:15.576Z,4.68
2022-11-16T05:45:44.078Z,5.03
2022-11-16T05:48:12.058Z,4.70
2022-11-16T05:50:42.695Z,5.03
2022-11-16T05:53:10.989Z,5.38
2022-11-16T05:55:40.181Z,5.60
2022-11-16T05:58:07.808Z,5.90
2022-11-16T06:00:35.408Z,5.07
2022-11-16T06:03:03.380Z,6.63
2022-11-16T06:05:32.473Z,8.38
2022-11-16T06:08:01.839Z,6.45
2022-11-16T06:10:29.621Z,7.72
2022-11-16T06:12:59.019Z,7.05
2022-11-16T06:15:26.613Z,6.67
2022-11-16T06:17:54.406Z,6.05
2022-11-16T06:20:22.141Z,5.43
2022-11-16T06:22:50.201Z,6.25
2022-11-16T06:25:18.241Z,6.18
2022-11-16T06:27:45.886Z,6.10
2022-11-16T06:30:18.368Z,5.85
2022-11-16T06:32:48.059Z,5.88
2022-11-16T06:35:19.423Z,6.15
2022-11-16T06:37:50.135Z,5.97
2022-11-16T06:40:18.439Z,5.90
2022-11-16T06:42:47.173Z,5.80
2022-11-16T06:45:17.889Z,6.32
2022-11-16T06:47:45.480Z,5.95
2022-11-16T06:50:15.196Z,6.30
2022-11-16T06:52:42.960Z,5.70
2022-11-16T06:55:13.898Z,5.28
2022-11-16T06:57:41.560Z,6.13
2022-11-16T07:00:11.633Z,5.88
2022-11-16T07:02:41.342Z,5.72
2022-11-16T07:05:09.584Z,8.13
2022-11-16T07:07:37.438Z,6.40
2022-11-16T07:10:06.190Z,6.63
2022-11-16T07:12:34.075Z,7.43
2022-11-16T07:15:01.822Z,8.35
2022-11-16T07:17:29.406Z,8.63
2022-11-16T07:20:00.597Z,7.45
2022-11-16T07:22:28.526Z,7.50
2022-11-16T07:24:56.246Z,7.72
2022-11-16T07:27:23.823Z,7.68
2022-11-16T07:29:51.622Z,7.70
2022-11-16T07:32:19.378Z,8.30
2022-11-16T07:34:50.729Z,6.72
2022-11-16T07:37:19.944Z,6.95
2022-11-16T07:39:47.552Z,6.50
2022-11-16T07:42:15.363Z,7.90
2022-11-16T07:44:42.937Z,6.65
2022-11-16T07:47:10.552Z,5.95
2022-11-16T07:49:40.407Z,6.30
2022-11-16T07:52:09.812Z,5.40
2022-11-16T07:54:38.935Z,5.10
2022-11-16T07:57:06.619Z,5.45
2022-11-16T07:59:34.488Z,4.90
2022-11-16T08:02:02.490Z,4.72
2022-11-16T08:04:30.221Z,6.00
2022-11-16T08:06:58.058Z,4.93
2022-11-16T08:09:25.819Z,4.20
2022-11-16T08:11:54.876Z,4.80
2022-11-16T08:14:22.476Z,4.65
2022-11-16T08:16:50.331Z,4.47
2022-11-16T08:19:18.159Z,4.17
2022-11-16T08:21:45.845Z,4.78
2022-11-16T08:24:13.521Z,4.72
2022-11-16T08:26:41.709Z,4.35
2022-11-16T08:29:15.001Z,4.57
2022-11-16T08:31:45.452Z,4.07
2022-11-16T08:34:13.882Z,4.28
2022-11-16T08:36:41.673Z,3.38
2022-11-16T08:39:09.412Z,4.07
2022-11-16T08:41:37.848Z,4.60
2022-11-16T08:44:05.825Z,3.57
2022-11-16T08:46:34.845Z,4.18
2022-11-16T08:49:02.584Z,4.30
2022-11-16T08:51:30.214Z,3.65
2022-11-16T08:53:59.123Z,4.10
2022-11-16T08:56:27.485Z,3.63
2022-11-16T08:58:58.875Z,4.07
2022-11-16T09:01:29.019Z,4.00
2022-11-16T09:03:58.503Z,4.90
2022-11-16T09:06:27.513Z,4.72
2022-11-16T09:08:55.272Z,4.10
2022-11-16T09:11:24.603Z,3.42
2022-11-16T09:13:53.816Z,3.72
2022-11-16T09:16:25.683Z,3.38
2022-11-16T09:18:53.602Z,2.88
2022-11-16T09:21:24.285Z,2.80
2022-11-16T09:23:52.442Z,2.90
2022-11-16T09:26:23.070Z,3.00
2022-11-16T09:28:57.040Z,3.22
2022-11-16T09:31:27.543Z,2.90
2022-11-16T09:33:58.354Z,2.60
2022-11-16T09:36:28.309Z,2.95
2022-11-16T09:39:23.751Z,2.80
2022-11-16T09:41:54.077Z,3.83
2022-11-16T09:44:39.762Z,5.05
2022-11-16T09:47:17.344Z,6.43
2022-11-16T09:49:50.114Z,4.55
2022-11-16T09:52:28.591Z,4.60
2022-11-16T09:54:58.061Z,4.53
2022-11-16T09:57:32.828Z,3.60
2022-11-16T10:00:04.630Z,3.60
2022-11-16T10:02:37.582Z,2.95
2022-11-16T10:05:15.011Z,4.22
2022-11-16T10:07:46.714Z,3.63
2022-11-16T10:10:15.827Z,3.40
2022-11-16T10:12:49.809Z,2.93
2022-11-16T10:15:39.172Z,3.53
2022-11-16T10:18:27.359Z,2.83
2022-11-16T10:21:10.381Z,3.30
2022-11-16T10:23:52.157Z,3.63
2022-11-16T10:26:28.714Z,4.10
2022-11-16T10:29:24.118Z,2.97
2022-11-16T10:32:18.810Z,2.25
2022-11-16T10:34:52.540Z,2.80
2022-11-16T10:37:20.994Z,2.78
2022-11-16T10:39:53.378Z,2.60
2022-11-16T10:42:27.900Z,2.60
2022-11-16T10:44:59.791Z,2.28
2022-11-16T10:47:34.159Z,2.67
2022-11-16T10:50:05.009Z,2.67
2022-11-16T10:52:32.635Z,2.37
2022-11-16T10:55:01.602Z,2.95
2022-11-16T10:57:55.791Z,3.17
2022-11-16T11:00:40.326Z,3.80
2022-11-16T11:03:10.878Z,3.20
2022-11-16T11:05:47.088Z,3.67
2022-11-16T11:08:25.238Z,4.15
2022-11-16T11:11:23.782Z,3.60
2022-11-16T11:14:06.028Z,4.97
2022-11-16T11:16:33.944Z,4.80
2022-11-16T11:19:20.334Z,6.07
2022-11-16T11:21:48.556Z,6.07
2022-11-16T11:24:43.315Z,6.07
2022-11-16T11:27:07.917Z,6.38
2022-11-16T11:29:38.650Z,4.47
2022-11-16T11:32:08.773Z,5.13
2022-11-16T11:34:41.851Z,6.70
2022-11-16T11:37:16.003Z,6.28
2022-11-16T11:39:44.145Z,8.77
2022-11-16T11:42:24.431Z,5.13
2022-11-16T11:44:57.758Z,5.50
2022-11-16T11:50:28.582Z,2.78
2022-11-16T11:53:09.055Z,3.70
2022-11-16T11:55:38.372Z,3.55
2022-11-16T11:58:12.267Z,4.67
2022-11-16T12:00:50.260Z,3.58
2022-11-16T12:03:47.415Z,4.18
2022-11-16T12:06:23.997Z,4.70
2022-11-16T12:09:16.965Z,4.70
2022-11-16T12:12:02.657Z,3.70
2022-11-16T12:14:47.006Z,3.40
2022-11-16T12:17:22.621Z,4.22
2022-11-16T12:20:18.034Z,2.60
2022-11-16T12:23:12.944Z,2.70
2022-11-16T12:25:50.158Z,3.83
2022-11-16T12:28:33.251Z,3.85
2022-11-16T12:31:19.472Z,2.88
2022-11-16T12:33:57.237Z,3.70
2022-11-16T12:36:34.384Z,6.15
2022-11-16T12:39:14.462Z,3.97
2022-11-16T12:42:20.883Z,3.00
2022-11-16T12:45:15.903Z,2.80
2022-11-16T12:48:00.981Z,2.70
2022-11-16T12:50:46.481Z,2.08
2022-11-16T12:53:32.606Z,5.00
2022-11-16T12:56:09.853Z,4.70
2022-11-16T12:58:52.321Z,4.50
2022-11-16T13:01:25.995Z,3.33
2022-11-16T13:03:57.223Z,3.10
2022-11-16T13:06:30.486Z,3.57
2022-11-16T13:09:04.607Z,4.35
2022-11-16T13:11:39.859Z,5.30
2022-11-16T13:14:12.334Z,5.35
2022-11-16T13:16:40.760Z,4.60
2022-11-16T13:19:14.271Z,3.13
2022-11-16T13:21:50.742Z,4.30
2022-11-16T13:24:32.151Z,5.38
2022-11-16T13:27:16.068Z,4.85
2022-11-16T13:29:48.983Z,4.00
2022-11-16T13:32:20.916Z,3.63
2022-11-16T13:34:50.976Z,3.45
2022-11-16T13:37:45.223Z,4.13
2022-11-16T13:40:25.864Z,4.15
2022-11-16T13:43:18.846Z,4.60
2022-11-16T13:45:57.143Z,3.63
2022-11-16T13:48:28.744Z,4.40
2022-11-16T13:50:59.823Z,4.20
2022-11-16T13:56:21.830Z,4.40
2022-11-16T13:58:55.197Z,4.97
2022-11-16T14:01:24.011Z,5.18
2022-11-16T14:03:52.896Z,4.43
2022-11-16T14:07:00.301Z,3.75
2022-11-16T14:09:43.596Z,3.45
2022-11-16T14:12:56.032Z,3.93
2022-11-16T14:15:25.882Z,3.67
2022-11-16T14:17:58.166Z,3.38
2022-11-16T14:20:34.467Z,3.40
2022-11-16T14:23:13.247Z,3.97
2022-11-16T14:25:47.808Z,4.10
2022-11-16T14:28:37.457Z,3.90
2022-11-16T14:31:16.999Z,6.40
2022-11-16T14:33:51.012Z,5.18
2022-11-16T14:36:19.202Z,5.60
2022-11-16T14:38:48.226Z,5.57
2022-11-16T14:41:21.521Z,6.63
2022-11-16T14:43:52.020Z,7.85
2022-11-16T14:46:24.089Z,7.68
2022-11-16T14:48:56.033Z,6.40
2022-11-16T14:51:27.199Z,5.07
2022-11-16T14:54:01.745Z,7.95
2022-11-16T14:56:29.516Z,8.45
2022-11-16T14:58:58.821Z,7.30
2022-11-16T15:01:29.187Z,10.45
2022-11-16T15:04:02.268Z,6.60
2022-11-16T15:06:31.497Z,4.38
2022-11-16T15:09:03.978Z,4.97
2022-11-16T15:11:52.147Z,5.20
2022-11-16T15:14:22.014Z,4.75
2022-11-16T15:16:51.879Z,5.40
2022-11-16T15:19:20.259Z,5.28
2022-11-16T15:21:53.276Z,4.95
2022-11-16T15:24:30.931Z,5.80
2022-11-16T15:27:04.308Z,5.90
2022-11-16T15:29:31.933Z,5.43
2022-11-16T15:31:59.799Z,5.18
2022-11-16T15:34:27.690Z,5.28
2022-11-16T15:36:55.277Z,6.05
2022-11-16T15:39:27.237Z,7.72
2022-11-16T15:42:02.175Z,9.07
2022-11-16T15:44:32.155Z,9.20
2022-11-16T15:47:00.528Z,8.18
2022-11-16T15:49:30.404Z,6.88
2022-11-16T15:51:59.584Z,7.10
2022-11-16T15:54:30.228Z,6.50
2022-11-16T15:57:06.769Z,5.65
2022-11-16T15:59:36.890Z,7.05
2022-11-16T16:02:05.178Z,8.27
2022-11-16T16:04:32.889Z,8.63
2022-11-16T16:07:01.723Z,7.87
2022-11-16T16:09:32.420Z,7.38
2022-11-16T16:12:17.803Z,7.53
2022-11-16T16:14:48.432Z,6.43
2022-11-16T16:17:24.477Z,10.25
2022-11-16T16:19:56.268Z,9.53
2022-11-16T16:22:27.794Z,7.43
2022-11-16T16:24:57.396Z,8.18
2022-11-16T16:27:26.827Z,6.95
2022-11-16T16:29:56.909Z,8.25
2022-11-16T16:32:26.743Z,8.83
2022-11-16T16:34:55.544Z,9.95
2022-11-16T16:37:23.631Z,7.82
2022-11-16T16:39:51.221Z,5.85
2022-11-16T16:42:20.610Z,6.07
2022-11-16T16:44:49.547Z,5.90
2022-11-16T16:47:20.540Z,5.20
2022-11-16T16:49:48.413Z,5.03
2022-11-16T16:52:16.024Z,6.82
2022-11-16T16:54:43.997Z,5.10
2022-11-16T16:57:15.245Z,5.13
2022-11-16T16:59:45.502Z,5.40
2022-11-16T17:02:14.063Z,7.47
2022-11-16T17:04:43.839Z,8.43
2022-11-16T17:07:12.182Z,7.32
2022-11-16T17:09:40.215Z,6.90
2022-11-16T17:12:10.021Z,7.70
2022-11-16T17:14:37.853Z,7.45
2022-11-16T17:17:06.963Z,8.30
2022-11-16T17:19:34.748Z,8.13
2022-11-16T17:22:02.322Z,6.70
2022-11-16T17:24:29.923Z,7.80
2022-11-16T17:26:57.685Z,7.82
2022-11-16T17:29:25.309Z,7.03
2022-11-16T17:31:52.900Z,7.93
2022-11-16T17:34:22.281Z,7.07
2022-11-16T17:36:49.998Z,7.68
2022-11-16T17:39:17.683Z,6.43
2022-11-16T17:41:45.484Z,6.72
2022-11-16T17:44:17.179Z,8.20
2022-11-16T17:46:48.101Z,8.37
2022-11-16T17:49:18.624Z,8.30
2022-11-16T17:51:47.754Z,9.52
2022-11-16T17:54:15.587Z,8.65
2022-11-16T17:56:43.334Z,7.68
2022-11-16T17:59:11.204Z,7.20
2022-11-16T18:01:39.505Z,6.90
2022-11-16T18:04:07.466Z,6.93
2022-11-16T18:06:35.621Z,7.10
2022-11-16T18:09:04.830Z,6.55
2022-11-16T18:11:32.809Z,6.87
2022-11-16T18:14:01.925Z,5.93
2022-11-16T18:16:31.686Z,9.20
2022-11-16T18:19:01.516Z,8.63
2022-11-16T18:21:29.473Z,6.32
2022-11-16T18:23:57.406Z,6.17
2022-11-16T18:26:27.078Z,8.13
2022-11-16T18:28:54.683Z,9.07
2022-11-16T18:31:24.314Z,9.35
2022-11-16T18:33:52.828Z,12.40
2022-11-16T18:36:22.073Z,16.13
2022-11-16T18:38:49.952Z,13.70
2022-11-16T18:41:20.426Z,11.13
2022-11-16T18:43:54.480Z,7.88
2022-11-16T18:46:24.170Z,8.23
2022-11-16T18:48:52.001Z,8.20
2022-11-16T18:51:20.922Z,8.23
2022-11-16T18:53:48.866Z,9.48
2022-11-16T18:56:19.954Z,8.38
2022-11-16T18:58:53.783Z,14.02
2022-11-16T19:01:28.631Z,12.20
2022-11-16T19:04:02.766Z,12.00
2022-11-16T19:06:32.715Z,9.50
2022-11-16T19:09:00.358Z,9.73
2022-11-16T19:11:29.013Z,10.77
2022-11-16T19:14:00.934Z,9.50
2022-11-16T19:16:29.096Z,9.77
2022-11-16T19:18:56.889Z,11.40
2022-11-16T19:21:26.217Z,15.25
2022-11-16T19:23:55.257Z,11.80
2022-11-16T19:26:28.864Z,12.47
2022-11-16T19:28:58.912Z,11.30
2022-11-16T19:31:28.808Z,9.43
2022-11-16T19:34:00.854Z,9.75
2022-11-16T19:36:34.921Z,8.15
2022-11-16T19:39:03.071Z,7.20
2022-11-16T19:41:30.672Z,7.22
2022-11-16T19:44:01.893Z,7.10
2022-11-16T19:46:31.889Z,7.60
2022-11-16T19:49:00.733Z,8.25
2022-11-16T19:51:31.880Z,7.73
2022-11-16T19:54:00.671Z,7.68
2022-11-16T19:56:28.577Z,8.82
2022-11-16T19:58:56.175Z,7.75
2022-11-16T20:01:29.331Z,7.38
2022-11-16T20:03:58.627Z,7.37
2022-11-16T20:06:29.228Z,6.85
2022-11-16T20:09:08.861Z,8.48
2022-11-16T20:11:39.976Z,8.43
2022-11-16T20:14:09.391Z,11.15
2022-11-16T20:16:40.681Z,13.23
2022-11-16T20:19:10.730Z,11.02
2022-11-16T20:21:41.024Z,10.70
2022-11-16T20:24:12.901Z,10.52
2022-11-16T20:26:46.077Z,9.70
2022-11-16T20:29:14.951Z,10.33
2022-11-16T20:31:46.408Z,11.60
2022-11-16T20:34:15.531Z,11.15
2022-11-16T20:36:44.585Z,10.27
2022-11-16T20:39:15.001Z,12.32
2022-11-16T20:41:43.895Z,11.63
2022-11-16T20:44:16.530Z,13.57
2022-11-16T20:46:46.283Z,14.77
2022-11-16T20:49:14.353Z,26.75
2022-11-16T20:51:42.398Z,18.13
2022-11-16T20:54:10.094Z,12.20
2022-11-16T20:56:37.752Z,10.90
2022-11-16T20:59:05.623Z,11.13
2022-11-16T21:01:33.321Z,9.85
2022-11-16T21:04:04.069Z,8.57
2022-11-16T21:06:35.133Z,7.77
2022-11-16T21:09:04.412Z,9.18
2022-11-16T21:11:53.853Z,7.97
2022-11-16T21:14:20.621Z,8.07
2022-11-16T21:16:48.587Z,8.18
2022-11-16T21:19:18.337Z,7.27
2022-11-16T21:21:46.270Z,8.60
2022-11-16T21:24:13.957Z,8.32
2022-11-16T21:26:41.656Z,8.32
2022-11-16T21:29:09.477Z,9.05
2022-11-16T21:31:37.920Z,8.50
2022-11-16T21:34:07.645Z,8.40
2022-11-16T21:36:37.231Z,9.55
2022-11-16T21:39:04.968Z,8.85
2022-11-16T21:41:32.734Z,8.35
2022-11-16T21:44:00.521Z,8.23
2022-11-16T21:46:28.547Z,8.32
2022-11-16T21:48:56.986Z,8.63
2022-11-16T21:51:27.412Z,9.35
2022-11-16T21:53:56.431Z,10.00
2022-11-16T21:56:26.036Z,12.33
2022-11-16T21:58:54.911Z,13.00
2022-11-16T22:01:24.256Z,13.32
2022-11-16T22:04:06.213Z,12.82
2022-11-16T22:06:51.410Z,12.57
2022-11-16T22:09:20.609Z,9.83
2022-11-16T22:11:48.284Z,9.07
2022-11-16T22:14:15.890Z,7.45
2022-11-16T22:16:43.481Z,8.02
2022-11-16T22:19:11.351Z,8.25
2022-11-16T22:21:38.975Z,7.67
2022-11-16T22:24:07.448Z,7.40
2022-11-16T22:26:38.188Z,6.65
2022-11-16T22:29:05.913Z,6.28
2022-11-16T22:31:34.355Z,7.00
2022-11-16T22:34:02.178Z,6.50
2022-11-16T22:36:30.190Z,6.53
2022-11-16T22:38:58.196Z,6.47
2022-11-16T22:41:25.884Z,6.28
2022-11-16T22:43:55.048Z,5.85
2022-11-16T22:46:22.928Z,6.13
2022-11-16T22:48:50.561Z,5.70
2022-11-16T22:51:20.490Z,5.63
2022-11-16T22:53:48.432Z,6.53
2022-11-16T22:56:16.021Z,5.95
2022-11-16T22:58:43.572Z,6.20
2022-11-16T23:01:12.857Z,5.10
2022-11-16T23:03:40.865Z,5.88
2022-11-16T23:06:09.199Z,5.18
2022-11-16T23:08:37.955Z,6.50
2022-11-16T23:11:25.858Z,5.57
2022-11-16T23:14:12.896Z,5.13
2022-11-16T23:16:42.890Z,6.22
2022-11-16T23:19:26.802Z,6.72
2022-11-16T23:22:12.547Z,6.20
2022-11-16T23:24:57.822Z,5.50
2022-11-16T23:27:31.567Z,5.85
2022-11-16T23:30:01.077Z,6.47
2022-11-16T23:32:31.188Z,5.78
2022-11-16T23:34:59.395Z,6.15
2022-11-16T23:37:27.146Z,6.17
2022-11-16T23:39:54.952Z,5.72
2022-11-16T23:42:40.030Z,5.43
2022-11-16T23:45:08.241Z,5.35
2022-11-16T23:47:37.165Z,5.68
2022-11-16T23:50:05.764Z,5.80
2022-11-16T23:52:33.531Z,5.53
2022-11-16T23:55:01.149Z,6.00
2022-11-16T23:57:28.694Z,4.93
2022-11-16T23:59:56.437Z,5.80
